createdAt,value
2019-05-02T00:00:21.252Z,11.99
2019-05-02T00:02:31.273Z,11.92
2019-05-02T00:04:38.842Z,12.02
2019-05-02T00:07:03.685Z,11.92
2019-05-02T00:09:11.615Z,12.04
2019-05-02T00:11:19.710Z,12.00
2019-05-02T00:13:27.042Z,11.93
2019-05-02T00:15:38.286Z,11.95
2019-05-02T00:17:43.620Z,12.16
2019-05-02T00:19:51.291Z,12.19
2019-05-02T00:21:58.789Z,12.12
2019-05-02T00:24:08.838Z,12.23
2019-05-02T00:26:16.158Z,12.22
2019-05-02T00:28:23.470Z,12.11
2019-05-02T00:30:34.705Z,12.16
2019-05-02T00:32:39.703Z,12.20
2019-05-02T00:34:46.951Z,12.17
2019-05-02T00:36:54.169Z,12.12
2019-05-02T00:39:01.457Z,12.11
2019-05-02T00:41:08.787Z,12.07
2019-05-02T00:43:16.237Z,12.09
2019-05-02T00:45:24.410Z,12.07
2019-05-02T00:47:42.209Z,12.12
2019-05-02T00:49:50.776Z,12.11
2019-05-02T00:52:01.469Z,11.99
2019-05-02T00:54:07.055Z,11.97
2019-05-02T00:56:14.233Z,11.97
2019-05-02T00:58:21.437Z,12.06
2019-05-02T01:00:30.281Z,11.98
2019-05-02T01:02:49.174Z,11.94
2019-05-02T01:04:59.296Z,12.01
2019-05-02T01:07:07.662Z,11.99
2019-05-02T01:09:14.969Z,12.02
2019-05-02T01:11:22.176Z,12.16
2019-05-02T01:13:29.452Z,11.98
2019-05-02T01:15:39.100Z,11.96
2019-05-02T01:17:45.677Z,11.90
2019-05-02T01:19:52.899Z,12.07
2019-05-02T01:22:00.210Z,12.16
2019-05-02T01:24:07.493Z,12.03
2019-05-02T01:26:14.782Z,11.92
2019-05-02T01:28:49.207Z,12.12
2019-05-02T01:31:23.217Z,11.88
2019-05-02T01:33:41.826Z,12.00
2019-05-02T01:36:06.236Z,12.03
2019-05-02T01:38:26.314Z,12.00
2019-05-02T01:40:34.010Z,12.10
2019-05-02T01:42:44.496Z,12.05
2019-05-02T01:44:50.187Z,12.18
2019-05-02T01:46:58.810Z,12.11
2019-05-02T01:49:07.588Z,11.98
2019-05-02T01:51:14.899Z,11.96
2019-05-02T01:53:22.171Z,12.08
2019-05-02T01:55:29.560Z,12.14
2019-05-02T01:57:39.980Z,12.25
2019-05-02T01:59:45.751Z,12.24
2019-05-02T02:01:57.544Z,12.12
2019-05-02T02:04:02.011Z,12.18
2019-05-02T02:06:10.172Z,12.22
2019-05-02T02:08:17.559Z,12.21
2019-05-02T02:10:24.863Z,12.18
2019-05-02T02:12:32.077Z,12.05
2019-05-02T02:14:39.402Z,12.08
2019-05-02T02:16:46.651Z,12.05
2019-05-02T02:19:04.106Z,12.13
2019-05-02T02:21:25.754Z,12.12
2019-05-02T02:23:49.637Z,12.06
2019-05-02T02:26:06.715Z,11.98
2019-05-02T02:28:12.263Z,11.98
2019-05-02T02:30:24.699Z,12.11
2019-05-02T02:32:28.768Z,12.12
2019-05-02T02:34:36.069Z,12.00
2019-05-02T02:36:43.262Z,11.98
2019-05-02T02:38:50.646Z,11.96
2019-05-02T02:40:57.965Z,12.04
2019-05-02T02:43:29.883Z,11.99
2019-05-02T02:45:59.902Z,11.92
2019-05-02T02:48:07.340Z,11.99
2019-05-02T02:50:14.859Z,11.96
2019-05-02T02:52:22.135Z,12.02
2019-05-02T02:54:29.392Z,11.88
2019-05-02T02:56:40.394Z,11.93
2019-05-02T02:58:47.938Z,11.96
2019-05-02T03:00:54.618Z,11.99
2019-05-02T03:03:03.046Z,11.92
2019-05-02T03:05:10.497Z,11.78
2019-05-02T03:07:25.572Z,11.77
2019-05-02T03:09:28.922Z,11.74
2019-05-02T03:11:44.422Z,11.78
2019-05-02T03:14:07.572Z,11.82
2019-05-02T03:16:15.023Z,11.82
2019-05-02T03:18:26.587Z,11.74
2019-05-02T03:20:39.558Z,11.73
2019-05-02T03:22:43.370Z,11.67
2019-05-02T03:24:50.328Z,11.66
2019-05-02T03:26:59.292Z,11.58
2019-05-02T03:29:06.686Z,11.49
2019-05-02T03:31:25.732Z,11.46
2019-05-02T03:33:24.359Z,11.50
2019-05-02T03:35:42.821Z,11.43
2019-05-02T03:37:44.747Z,11.46
2019-05-02T03:39:57.558Z,11.33
2019-05-02T03:42:02.971Z,11.33
2019-05-02T03:44:12.384Z,11.29
2019-05-02T03:46:20.461Z,11.31
2019-05-02T03:48:27.883Z,11.10
2019-05-02T03:50:35.620Z,11.27
2019-05-02T03:52:46.205Z,11.18
2019-05-02T03:54:52.445Z,11.09
2019-05-02T03:57:00.288Z,11.15
2019-05-02T03:59:07.664Z,11.19
2019-05-02T04:01:15.462Z,11.05
2019-05-02T04:03:23.471Z,11.00
2019-05-02T04:05:33.691Z,11.06
2019-05-02T04:07:42.329Z,10.86
2019-05-02T04:09:50.252Z,10.84
2019-05-02T04:11:57.783Z,10.78
2019-05-02T04:14:14.848Z,10.78
2019-05-02T04:16:17.425Z,10.80
2019-05-02T04:18:25.718Z,10.95
2019-05-02T04:20:33.198Z,10.84
2019-05-02T04:22:48.277Z,10.79
2019-05-02T04:24:54.606Z,10.81
2019-05-02T04:26:58.747Z,10.73
2019-05-02T04:29:06.170Z,10.75
2019-05-02T04:31:13.751Z,10.82
2019-05-02T04:33:21.199Z,10.69
2019-05-02T04:35:34.306Z,10.64
2019-05-02T04:37:41.140Z,10.65
2019-05-02T04:39:48.894Z,10.65
2019-05-02T04:41:58.403Z,10.59
2019-05-02T04:44:04.527Z,10.57
2019-05-02T04:46:22.151Z,10.60
2019-05-02T04:48:21.003Z,10.70
2019-05-02T04:50:29.480Z,10.60
2019-05-02T04:52:38.353Z,10.47
2019-05-02T04:54:48.595Z,10.48
2019-05-02T04:56:55.588Z,10.55
2019-05-02T04:59:13.788Z,10.49
2019-05-02T05:01:12.096Z,10.43
2019-05-02T05:03:21.270Z,10.53
2019-05-02T05:05:31.066Z,10.60
2019-05-02T05:07:41.009Z,10.75
2019-05-02T05:09:50.114Z,10.65
2019-05-02T05:12:00.910Z,10.59
2019-05-02T05:14:05.060Z,10.58
2019-05-02T05:16:15.695Z,10.78
2019-05-02T05:18:21.282Z,10.50
2019-05-02T05:20:28.649Z,10.66
2019-05-02T05:22:44.048Z,10.45
2019-05-02T05:24:53.403Z,10.48
2019-05-02T05:27:00.777Z,10.55
2019-05-02T05:29:08.384Z,10.52
2019-05-02T05:31:23.695Z,10.60
2019-05-02T05:33:24.889Z,10.62
2019-05-02T05:35:32.284Z,10.50
2019-05-02T05:37:43.164Z,10.46
2019-05-02T05:39:52.532Z,10.52
2019-05-02T05:41:57.950Z,10.53
2019-05-02T05:44:07.619Z,10.50
2019-05-02T05:46:14.666Z,10.50
2019-05-02T05:48:22.436Z,10.57
2019-05-02T05:50:32.167Z,10.51
2019-05-02T05:52:42.430Z,10.45
2019-05-02T05:54:47.762Z,10.50
2019-05-02T05:56:57.169Z,10.52
2019-05-02T05:59:04.293Z,10.70
2019-05-02T06:01:11.859Z,10.67
2019-05-02T06:03:19.366Z,10.61
2019-05-02T06:05:27.637Z,10.61
2019-05-02T06:07:41.831Z,10.65
2019-05-02T06:09:44.497Z,10.57
2019-05-02T06:11:55.386Z,10.61
2019-05-02T06:14:01.995Z,10.62
2019-05-02T06:16:10.484Z,10.63
2019-05-02T06:18:18.568Z,10.74
2019-05-02T06:20:30.544Z,10.62
2019-05-02T06:22:35.057Z,10.64
2019-05-02T06:24:46.135Z,10.61
2019-05-02T06:26:51.947Z,10.62
2019-05-02T06:28:59.605Z,10.73
2019-05-02T06:31:08.686Z,10.64
2019-05-02T06:33:16.350Z,10.66
2019-05-02T06:35:23.705Z,10.66
2019-05-02T06:37:31.160Z,10.54
2019-05-02T06:39:38.714Z,10.73
2019-05-02T06:41:46.213Z,10.78
2019-05-02T06:43:53.687Z,10.75
2019-05-02T06:46:14.728Z,10.76
2019-05-02T06:48:17.110Z,10.90
2019-05-02T06:50:21.228Z,10.82
2019-05-02T06:52:32.874Z,10.87
2019-05-02T06:54:38.935Z,10.94
2019-05-02T06:56:48.022Z,11.06
2019-05-02T06:58:55.440Z,11.21
2019-05-02T07:01:03.657Z,11.05
2019-05-02T07:03:11.686Z,10.87
2019-05-02T07:05:19.318Z,11.01
2019-05-02T07:07:31.355Z,11.10
2019-05-02T07:09:41.073Z,11.16
2019-05-02T07:11:56.630Z,11.24
2019-05-02T07:13:54.729Z,11.25
2019-05-02T07:16:16.170Z,11.02
2019-05-02T07:18:20.560Z,10.75
2019-05-02T07:20:28.078Z,10.49
2019-05-02T07:22:38.810Z,10.58
2019-05-02T07:24:44.683Z,10.65
2019-05-02T07:26:56.491Z,10.59
2019-05-02T07:29:01.141Z,10.65
2019-05-02T07:31:12.157Z,10.79
2019-05-02T07:33:17.737Z,10.68
2019-05-02T07:35:25.925Z,10.69
2019-05-02T07:37:33.640Z,10.77
2019-05-02T07:39:42.195Z,10.79
2019-05-02T07:41:49.671Z,10.81
2019-05-02T07:43:57.538Z,10.70
2019-05-02T07:46:05.109Z,10.76
2019-05-02T07:48:17.238Z,10.91
2019-05-02T07:50:21.794Z,10.91
2019-05-02T07:52:33.677Z,11.04
2019-05-02T07:54:38.168Z,10.92
2019-05-02T07:56:48.624Z,10.88
2019-05-02T07:58:54.993Z,10.95
2019-05-02T08:01:02.470Z,11.15
2019-05-02T08:03:09.859Z,11.37
2019-05-02T08:05:21.835Z,11.47
2019-05-02T08:07:34.344Z,11.31
2019-05-02T08:09:39.334Z,11.39
2019-05-02T08:11:47.244Z,11.68
2019-05-02T08:13:55.812Z,11.68
2019-05-02T08:16:03.645Z,11.51
2019-05-02T08:18:11.039Z,11.39
2019-05-02T08:20:19.551Z,11.33
2019-05-02T08:22:27.790Z,11.28
2019-05-02T08:24:37.870Z,11.25
2019-05-02T08:26:58.235Z,11.50
2019-05-02T08:29:07.746Z,11.84
2019-05-02T08:31:19.028Z,12.12
2019-05-02T08:33:29.386Z,11.89
2019-05-02T08:35:34.050Z,11.91
2019-05-02T08:37:43.042Z,11.86
2019-05-02T08:39:50.899Z,11.88
2019-05-02T08:41:59.451Z,12.12
2019-05-02T08:44:07.385Z,11.87
2019-05-02T08:46:15.952Z,11.84
2019-05-02T08:48:23.997Z,12.01
2019-05-02T08:50:33.283Z,12.13
2019-05-02T08:52:42.358Z,12.04
2019-05-02T08:54:50.254Z,11.88
2019-05-02T08:56:59.205Z,11.93
2019-05-02T08:59:07.144Z,12.08
2019-05-02T09:01:15.491Z,12.01
2019-05-02T09:03:23.921Z,12.10
2019-05-02T09:05:31.351Z,11.90
2019-05-02T09:07:40.083Z,12.06
2019-05-02T09:09:49.507Z,12.19
2019-05-02T09:12:09.075Z,12.66
2019-05-02T09:14:06.394Z,12.15
2019-05-02T09:16:14.052Z,12.01
2019-05-02T09:18:22.948Z,11.94
2019-05-02T09:20:31.940Z,12.26
2019-05-02T09:22:41.725Z,12.18
2019-05-02T09:24:48.800Z,12.02
2019-05-02T09:26:56.309Z,12.07
2019-05-02T09:29:05.394Z,12.23
2019-05-02T09:31:16.625Z,12.20
2019-05-02T09:33:23.918Z,12.26
2019-05-02T09:35:32.858Z,12.55
2019-05-02T09:37:41.908Z,12.24
2019-05-02T09:39:49.510Z,12.31
2019-05-02T09:41:57.035Z,12.27
2019-05-02T09:44:04.400Z,12.07
2019-05-02T09:46:12.915Z,12.28
2019-05-02T09:48:24.815Z,12.30
2019-05-02T09:50:32.174Z,12.47
2019-05-02T09:52:41.672Z,12.59
2019-05-02T09:54:48.850Z,12.64
2019-05-02T09:56:56.348Z,12.46
2019-05-02T09:59:23.342Z,12.66
2019-05-02T10:01:22.725Z,12.95
2019-05-02T10:03:31.964Z,12.89
2019-05-02T10:05:39.963Z,12.78
2019-05-02T10:07:48.708Z,12.69
2019-05-02T10:09:57.665Z,12.47
2019-05-02T10:12:05.278Z,12.59
2019-05-02T10:14:14.343Z,12.60
2019-05-02T10:16:23.495Z,12.82
2019-05-02T10:18:32.980Z,12.66
2019-05-02T10:20:41.904Z,12.70
2019-05-02T10:22:49.593Z,12.88
2019-05-02T10:24:57.013Z,12.78
2019-05-02T10:27:08.567Z,12.93
2019-05-02T10:29:14.311Z,13.13
2019-05-02T10:31:21.997Z,13.00
2019-05-02T10:33:33.727Z,12.96
2019-05-02T10:35:43.331Z,12.81
2019-05-02T10:37:53.856Z,13.15
2019-05-02T10:40:03.033Z,13.15
2019-05-02T10:42:12.379Z,13.22
2019-05-02T10:44:19.471Z,13.29
2019-05-02T10:46:37.697Z,13.55
2019-05-02T10:48:52.528Z,13.47
2019-05-02T10:51:18.456Z,13.57
2019-05-02T10:53:25.874Z,13.69
2019-05-02T10:55:33.367Z,13.80
2019-05-02T10:57:42.069Z,14.01
2019-05-02T10:59:49.593Z,13.98
2019-05-02T11:02:14.713Z,14.08
2019-05-02T11:04:27.433Z,14.01
2019-05-02T11:06:32.448Z,13.49
2019-05-02T11:08:42.208Z,13.67
2019-05-02T11:10:49.237Z,13.98
2019-05-02T11:13:03.137Z,13.75
2019-05-02T11:15:41.922Z,13.74
2019-05-02T11:17:50.014Z,14.05
2019-05-02T11:20:01.878Z,14.58
2019-05-02T11:22:09.477Z,14.37
2019-05-02T11:24:16.913Z,14.21
2019-05-02T11:26:25.277Z,14.06
2019-05-02T11:28:32.908Z,13.88
2019-05-02T11:30:41.962Z,13.93
2019-05-02T11:32:52.102Z,13.89
2019-05-02T11:34:59.654Z,13.89
2019-05-02T11:37:07.430Z,13.64
2019-05-02T11:39:24.260Z,13.75
2019-05-02T11:41:24.131Z,13.83
2019-05-02T11:43:32.630Z,13.71
2019-05-02T11:45:40.249Z,13.90
2019-05-02T11:47:47.661Z,14.12
2019-05-02T11:49:56.015Z,14.39
2019-05-02T11:52:04.673Z,14.34
2019-05-02T11:54:13.037Z,14.49
2019-05-02T11:56:22.345Z,14.63
2019-05-02T11:58:29.914Z,14.87
2019-05-02T12:00:39.721Z,14.91
2019-05-02T12:03:05.358Z,14.95
2019-05-02T12:05:14.731Z,14.93
2019-05-02T12:07:23.128Z,14.67
2019-05-02T12:09:31.958Z,14.71
2019-05-02T12:11:39.496Z,14.64
2019-05-02T12:13:51.420Z,14.89
2019-05-02T12:15:56.427Z,14.86
2019-05-02T12:18:03.905Z,14.97
2019-05-02T12:20:11.944Z,14.79
2019-05-02T12:22:19.550Z,14.99
2019-05-02T12:24:27.042Z,14.65
2019-05-02T12:26:34.559Z,14.15
2019-05-02T12:28:42.919Z,14.06
2019-05-02T12:30:51.908Z,14.27
2019-05-02T12:32:59.482Z,14.63
2019-05-02T12:35:07.509Z,14.02
2019-05-02T12:37:15.017Z,13.82
2019-05-02T12:39:22.621Z,14.02
2019-05-02T12:41:30.054Z,14.09
2019-05-02T12:43:37.382Z,13.81
2019-05-02T12:45:44.768Z,13.78
2019-05-02T12:47:52.334Z,13.80
2019-05-02T12:49:59.968Z,13.95
2019-05-02T12:52:07.791Z,14.35
2019-05-02T12:54:15.162Z,14.16
2019-05-02T12:56:23.020Z,14.37
2019-05-02T12:58:32.555Z,14.02
2019-05-02T13:00:40.023Z,13.65
2019-05-02T13:02:53.889Z,13.53
2019-05-02T13:05:02.418Z,13.74
2019-05-02T13:07:12.630Z,13.79
2019-05-02T13:09:19.925Z,14.10
2019-05-02T13:11:54.581Z,13.97
2019-05-02T13:14:02.278Z,13.99
2019-05-02T13:16:12.205Z,14.04
2019-05-02T13:18:25.377Z,14.16
2019-05-02T13:20:33.611Z,14.18
2019-05-02T13:22:57.305Z,14.26
2019-05-02T13:25:10.499Z,14.52
2019-05-02T13:27:18.790Z,14.17
2019-05-02T13:29:26.230Z,14.12
2019-05-02T13:31:39.963Z,13.95
2019-05-02T13:34:13.287Z,13.76
2019-05-02T13:36:43.141Z,14.22
2019-05-02T13:38:51.925Z,14.24
2019-05-02T13:40:59.858Z,13.99
2019-05-02T13:43:07.512Z,14.00
2019-05-02T13:45:33.906Z,14.31
2019-05-02T13:47:42.604Z,14.22
2019-05-02T13:49:54.879Z,14.11
2019-05-02T13:52:02.339Z,13.92
2019-05-02T13:54:09.380Z,13.84
2019-05-02T13:56:47.860Z,13.79
2019-05-02T13:58:55.183Z,13.68
2019-05-02T14:01:03.431Z,13.99
2019-05-02T14:03:11.911Z,13.83
2019-05-02T14:05:22.231Z,13.87
2019-05-02T14:07:32.452Z,14.02
2019-05-02T14:09:52.713Z,14.10
2019-05-02T14:12:17.405Z,14.03
2019-05-02T14:14:24.861Z,13.95
2019-05-02T14:16:32.264Z,13.82
2019-05-02T14:18:42.011Z,13.78
2019-05-02T14:20:48.875Z,13.83
2019-05-02T14:22:56.259Z,13.69
2019-05-02T14:25:03.763Z,13.89
2019-05-02T14:27:15.556Z,13.73
2019-05-02T14:29:21.737Z,13.76
2019-05-02T14:31:29.267Z,13.76
2019-05-02T14:33:38.233Z,13.73
2019-05-02T14:35:45.699Z,13.53
2019-05-02T14:38:27.588Z,13.47
2019-05-02T14:40:36.402Z,13.42
2019-05-02T14:42:44.135Z,13.37
2019-05-02T14:45:07.165Z,13.29
2019-05-02T14:47:02.118Z,13.49
2019-05-02T14:49:12.033Z,13.41
2019-05-02T14:51:22.879Z,13.26
2019-05-02T14:53:31.907Z,13.34
2019-05-02T14:55:42.110Z,13.30
2019-05-02T14:57:49.914Z,13.53
2019-05-02T14:59:59.518Z,13.56
2019-05-02T15:02:12.959Z,13.62
2019-05-02T15:04:22.668Z,13.50
2019-05-02T15:06:33.332Z,13.55
2019-05-02T15:08:43.493Z,13.41
2019-05-02T15:10:52.474Z,13.25
2019-05-02T15:12:59.778Z,13.17
2019-05-02T15:15:12.320Z,13.16
2019-05-02T15:17:19.858Z,13.13
2019-05-02T15:19:27.531Z,13.06
2019-05-02T15:21:46.995Z,13.13
2019-05-02T15:23:54.198Z,13.16
2019-05-02T15:26:02.687Z,13.11
2019-05-02T15:28:13.120Z,13.03
2019-05-02T15:30:20.873Z,12.91
2019-05-02T15:32:42.848Z,12.91
2019-05-02T15:35:17.798Z,12.89
2019-05-02T15:37:25.712Z,12.87
2019-05-02T15:41:44.723Z,12.96
2019-05-02T15:43:52.342Z,12.90
2019-05-02T15:46:01.603Z,12.82
2019-05-02T15:48:09.593Z,12.87
2019-05-02T15:50:22.029Z,12.87
2019-05-02T15:52:32.632Z,13.00
2019-05-02T15:54:40.121Z,12.91
2019-05-02T15:56:59.922Z,12.81
2019-05-02T15:59:03.385Z,12.80
2019-05-02T16:01:27.053Z,12.82
2019-05-02T16:03:46.377Z,12.80
2019-05-02T16:05:54.184Z,12.78
2019-05-02T16:08:08.363Z,12.69
2019-05-02T16:10:14.174Z,12.78
2019-05-02T16:12:22.248Z,12.72
2019-05-02T16:14:34.115Z,12.67
2019-05-02T16:16:41.855Z,12.61
2019-05-02T16:18:52.578Z,12.60
2019-05-02T16:21:07.890Z,12.57
2019-05-02T16:23:18.968Z,12.39
2019-05-02T16:25:26.036Z,12.44
2019-05-02T16:27:49.667Z,12.40
2019-05-02T16:29:58.337Z,12.37
2019-05-02T16:32:35.065Z,12.40
2019-05-02T16:35:12.426Z,12.31
2019-05-02T16:37:16.703Z,12.27
2019-05-02T16:39:23.519Z,12.32
2019-05-02T16:41:32.508Z,12.26
2019-05-02T16:43:41.857Z,12.26
2019-05-02T16:45:49.463Z,12.23
2019-05-02T16:47:58.930Z,12.35
2019-05-02T16:50:07.879Z,12.28
2019-05-02T16:52:16.152Z,12.31
2019-05-02T16:54:23.843Z,12.32
2019-05-02T16:56:31.694Z,12.19
2019-05-02T16:58:43.378Z,12.24
2019-05-02T17:00:48.517Z,12.25
2019-05-02T17:02:56.148Z,12.27
2019-05-02T17:05:08.233Z,12.16
2019-05-02T17:07:17.222Z,12.09
2019-05-02T17:09:46.826Z,12.01
2019-05-02T17:11:54.239Z,12.09
2019-05-02T17:14:07.048Z,11.98
2019-05-02T17:16:15.859Z,12.02
2019-05-02T17:18:22.853Z,11.92
2019-05-02T17:20:31.829Z,11.93
2019-05-02T17:22:39.133Z,11.89
2019-05-02T17:24:46.601Z,11.89
2019-05-02T17:26:53.902Z,11.91
2019-05-02T17:29:02.508Z,11.91
2019-05-02T17:31:10.738Z,11.88
2019-05-02T17:33:19.262Z,11.90
2019-05-02T17:35:26.959Z,11.85
2019-05-02T17:37:34.350Z,11.92
2019-05-02T17:39:45.901Z,11.90
2019-05-02T17:41:52.390Z,11.92
2019-05-02T17:43:59.967Z,11.94
2019-05-02T17:46:12.429Z,11.92
2019-05-02T17:48:17.851Z,11.97
2019-05-02T17:50:43.697Z,12.00
2019-05-02T17:52:56.116Z,11.96
2019-05-02T17:55:05.087Z,11.89
2019-05-02T17:57:12.509Z,11.89
2019-05-02T17:59:19.954Z,11.82
2019-05-02T18:01:35.050Z,11.84
2019-05-02T18:03:42.574Z,11.81
2019-05-02T18:05:50.159Z,11.74
2019-05-02T18:07:57.572Z,11.73
2019-05-02T18:10:13.543Z,11.68
2019-05-02T18:12:16.307Z,11.67
2019-05-02T18:14:24.164Z,11.71
2019-05-02T18:16:32.409Z,11.69
2019-05-02T18:18:43.741Z,11.68
2019-05-02T18:20:49.253Z,11.60
2019-05-02T18:22:57.043Z,11.58
2019-05-02T18:25:04.769Z,11.55
2019-05-02T18:27:12.850Z,11.58
2019-05-02T18:29:20.677Z,11.56
2019-05-02T18:31:29.138Z,11.50
2019-05-02T18:33:41.266Z,11.46
2019-05-02T18:35:47.030Z,11.43
2019-05-02T18:37:54.683Z,11.46
2019-05-02T18:40:03.074Z,11.42
2019-05-02T18:42:11.939Z,11.39
2019-05-02T18:44:19.698Z,11.37
2019-05-02T18:46:27.235Z,11.38
2019-05-02T18:48:36.618Z,11.29
2019-05-02T18:50:47.695Z,11.28
2019-05-02T18:52:55.060Z,11.25
2019-05-02T18:55:02.690Z,11.28
2019-05-02T18:57:11.927Z,11.29
2019-05-02T18:59:21.623Z,11.25
2019-05-02T19:01:29.095Z,11.21
2019-05-02T19:03:37.699Z,11.19
2019-05-02T19:05:46.630Z,11.23
2019-05-02T19:07:56.418Z,11.20
2019-05-02T19:10:07.020Z,11.18
2019-05-02T19:12:21.433Z,11.17
2019-05-02T19:14:25.936Z,10.99
2019-05-02T19:16:31.822Z,11.12
2019-05-02T19:18:39.799Z,11.12
2019-05-02T19:21:05.533Z,11.12
2019-05-02T19:23:13.154Z,10.96
2019-05-02T19:25:22.796Z,10.91
2019-05-02T19:27:47.963Z,10.90
2019-05-02T19:29:55.605Z,10.87
2019-05-02T19:32:04.600Z,10.90
2019-05-02T19:34:16.757Z,10.89
2019-05-02T19:36:24.891Z,10.79
2019-05-02T19:38:32.417Z,10.80
2019-05-02T19:40:39.832Z,10.79
2019-05-02T19:42:47.420Z,10.74
2019-05-02T19:44:54.914Z,10.83
2019-05-02T19:47:02.945Z,10.75
2019-05-02T19:49:12.380Z,10.61
2019-05-02T19:51:22.451Z,10.63
2019-05-02T19:53:32.296Z,10.60
2019-05-02T19:55:42.714Z,10.65
2019-05-02T19:57:49.717Z,10.50
2019-05-02T20:00:01.848Z,10.51
2019-05-02T20:02:07.372Z,10.60
2019-05-02T20:04:18.167Z,10.59
2019-05-02T20:06:26.084Z,10.54
2019-05-02T20:08:34.750Z,10.58
2019-05-02T20:10:42.762Z,10.53
2019-05-02T20:12:50.915Z,10.47
2019-05-02T20:14:59.769Z,10.47
2019-05-02T20:17:08.525Z,10.53
2019-05-02T20:19:17.198Z,10.46
2019-05-02T20:21:40.136Z,10.44
2019-05-02T20:23:47.944Z,10.35
2019-05-02T20:25:55.630Z,10.39
2019-05-02T20:28:03.208Z,10.31
2019-05-02T20:30:12.014Z,10.40
2019-05-02T20:32:21.690Z,10.28
2019-05-02T20:34:28.939Z,10.38
2019-05-02T20:36:36.401Z,10.36
2019-05-02T20:38:44.159Z,10.26
2019-05-02T20:40:52.274Z,10.37
2019-05-02T20:43:00.010Z,10.18
2019-05-02T20:45:07.577Z,10.28
2019-05-02T20:47:21.854Z,10.37
2019-05-02T20:49:29.286Z,10.23
2019-05-02T20:51:36.739Z,10.25
2019-05-02T20:53:44.130Z,10.23
2019-05-02T20:55:52.352Z,10.12
2019-05-02T20:58:02.034Z,10.20
2019-05-02T21:00:19.992Z,10.26
2019-05-02T21:02:27.806Z,10.27
2019-05-02T21:04:35.441Z,10.21
2019-05-02T21:06:52.712Z,10.12
2019-05-02T21:09:15.740Z,10.07
2019-05-02T21:11:24.388Z,10.24
2019-05-02T21:13:32.754Z,10.07
2019-05-02T21:15:40.534Z,10.03
2019-05-02T21:17:48.038Z,10.14
2019-05-02T21:19:55.524Z,10.03
2019-05-02T21:22:09.974Z,9.94
2019-05-02T21:24:17.497Z,10.02
2019-05-02T21:26:24.922Z,9.92
2019-05-02T21:28:32.302Z,10.01
2019-05-02T21:30:41.644Z,9.87
2019-05-02T21:32:49.285Z,9.91
2019-05-02T21:34:56.988Z,9.89
2019-05-02T21:37:04.502Z,10.01
2019-05-02T21:39:14.425Z,9.82
2019-05-02T21:41:22.321Z,9.89
2019-05-02T21:44:22.339Z,9.82
2019-05-02T21:46:31.796Z,9.87
2019-05-02T21:48:39.259Z,9.88
2019-05-02T21:50:52.447Z,9.87
2019-05-02T21:53:18.581Z,9.82
2019-05-02T21:55:47.764Z,9.92
2019-05-02T21:57:55.302Z,9.85
2019-05-02T22:00:03.022Z,9.91
2019-05-02T22:02:12.656Z,9.81
2019-05-02T22:04:22.387Z,9.89
2019-05-02T22:06:32.230Z,9.92
2019-05-02T22:12:04.403Z,9.87
2019-05-02T22:14:15.884Z,9.84
2019-05-02T22:16:23.543Z,9.79
2019-05-02T22:18:32.119Z,9.69
2019-05-02T22:20:39.832Z,9.73
2019-05-02T22:22:48.152Z,9.66
2019-05-02T22:25:07.597Z,9.58
2019-05-02T22:27:15.195Z,9.59
2019-05-02T22:29:32.488Z,9.61
2019-05-02T22:31:42.864Z,9.61
2019-05-02T22:33:49.803Z,9.69
2019-05-02T22:35:57.292Z,9.62
2019-05-02T22:38:13.549Z,9.70
2019-05-02T22:40:21.831Z,9.67
2019-05-02T22:42:29.499Z,9.60
2019-05-02T22:44:37.084Z,9.68
2019-05-02T22:46:45.365Z,9.61
2019-05-02T22:48:52.745Z,9.56
2019-05-02T22:51:00.583Z,9.59
2019-05-02T22:53:08.014Z,9.39
2019-05-02T22:55:16.261Z,9.54
2019-05-02T22:57:23.568Z,9.56
2019-05-02T22:59:31.739Z,9.54
2019-05-02T23:01:39.256Z,9.42
2019-05-02T23:03:46.571Z,9.42
2019-05-02T23:05:53.944Z,9.30
2019-05-02T23:08:02.287Z,9.29
2019-05-02T23:10:12.544Z,9.45
2019-05-02T23:12:19.715Z,9.40
2019-05-02T23:14:27.202Z,9.36
2019-05-02T23:16:34.774Z,9.42
2019-05-02T23:18:42.616Z,9.41
2019-05-02T23:20:50.119Z,9.30
2019-05-02T23:22:57.477Z,9.29
2019-05-02T23:25:26.754Z,9.18
2019-05-02T23:27:42.444Z,9.30
2019-05-02T23:29:51.914Z,9.17
2019-05-02T23:31:59.020Z,9.18
2019-05-02T23:34:06.414Z,9.21
2019-05-02T23:36:13.774Z,9.20
2019-05-02T23:38:21.757Z,9.23
2019-05-02T23:40:29.219Z,9.34
2019-05-02T23:42:36.594Z,9.45
2019-05-02T23:44:44.004Z,9.29
2019-05-02T23:46:51.570Z,9.33
2019-05-02T23:48:59.092Z,9.28
2019-05-02T23:51:06.589Z,9.12
2019-05-02T23:53:13.891Z,9.11
2019-05-02T23:55:22.828Z,9.08
2019-05-02T23:57:32.000Z,9.13
2019-05-02T23:59:39.178Z,9.06
